sensor_id;sensor_type;location;lat;lon;timestamp;P1;durP1;ratioP1;P2;durP2;ratioP2
71462;SDS011;59266;52.608;13.260;2023-07-31T00:01:09;7.22;;;1.80;;
71462;SDS011;59266;52.608;13.260;2023-07-31T00:03:36;7.47;;;2.00;;
71462;SDS011;59266;52.608;13.260;2023-07-31T00:06:03;9.90;;;2.00;;
71462;SDS011;59266;52.608;13.260;2023-07-31T00:08:29;7.90;;;2.20;;
71462;SDS011;59266;52.608;13.260;2023-07-31T00:10:56;5.60;;;1.88;;
71462;SDS011;59266;52.608;13.260;2023-07-31T00:13:22;6.70;;;2.05;;
71462;SDS011;59266;52.608;13.260;2023-07-31T00:15:49;10.10;;;3.15;;
71462;SDS011;59266;52.608;13.260;2023-07-31T00:18:16;5.70;;;2.00;;
71462;SDS011;59266;52.608;13.260;2023-07-31T00:20:42;5.57;;;2.17;;
71462;SDS011;59266;52.608;13.260;2023-07-31T00:23:09;7.28;;;2.00;;
71462;SDS011;59266;52.608;13.260;2023-07-31T00:25:35;11.65;;;2.15;;
71462;SDS011;59266;52.608;13.260;2023-07-31T00:28:02;11.70;;;2.10;;
71462;SDS011;59266;52.608;13.260;2023-07-31T00:30:29;7.15;;;2.17;;
71462;SDS011;59266;52.608;13.260;2023-07-31T00:32:55;8.77;;;2.15;;
71462;SDS011;59266;52.608;13.260;2023-07-31T00:35:22;5.65;;;2.00;;
71462;SDS011;59266;52.608;13.260;2023-07-31T00:37:49;7.93;;;2.00;;
71462;SDS011;59266;52.608;13.260;2023-07-31T00:40:16;5.68;;;1.80;;
71462;SDS011;59266;52.608;13.260;2023-07-31T00:42:42;9.05;;;2.80;;
71462;SDS011;59266;52.608;13.260;2023-07-31T00:45:09;7.00;;;2.08;;
71462;SDS011;59266;52.608;13.260;2023-07-31T00:47:35;9.30;;;2.35;;
71462;SDS011;59266;52.608;13.260;2023-07-31T00:50:02;7.10;;;2.20;;
71462;SDS011;59266;52.608;13.260;2023-07-31T00:52:28;7.32;;;2.08;;
71462;SDS011;59266;52.608;13.260;2023-07-31T00:54:55;7.18;;;1.83;;
71462;SDS011;59266;52.608;13.260;2023-07-31T00:57:22;7.70;;;1.83;;
71462;SDS011;59266;52.608;13.260;2023-07-31T00:59:48;10.93;;;2.03;;
71462;SDS011;59266;52.608;13.260;2023-07-31T01:02:15;6.80;;;1.88;;
71462;SDS011;59266;52.608;13.260;2023-07-31T01:04:42;6.43;;;1.92;;
71462;SDS011;59266;52.608;13.260;2023-07-31T01:07:19;9.20;;;2.47;;
71462;SDS011;59266;52.608;13.260;2023-07-31T01:12:26;6.32;;;1.98;;
71462;SDS011;59266;52.608;13.260;2023-07-31T01:15:07;5.55;;;2.00;;
71462;SDS011;59266;52.608;13.260;2023-07-31T01:17:38;4.97;;;1.90;;
71462;SDS011;59266;52.608;13.260;2023-07-31T01:20:10;6.75;;;2.03;;
71462;SDS011;59266;52.608;13.260;2023-07-31T01:22:42;7.13;;;2.03;;
71462;SDS011;59266;52.608;13.260;2023-07-31T01:30:57;5.65;;;2.20;;
71462;SDS011;59266;52.608;13.260;2023-07-31T01:33:26;9.07;;;2.28;;
71462;SDS011;59266;52.608;13.260;2023-07-31T01:35:53;6.90;;;2.20;;
71462;SDS011;59266;52.608;13.260;2023-07-31T01:38:21;7.40;;;1.88;;
71462;SDS011;59266;52.608;13.260;2023-07-31T01:40:52;6.78;;;2.08;;
71462;SDS011;59266;52.608;13.260;2023-07-31T01:43:19;8.25;;;2.20;;
71462;SDS011;59266;52.608;13.260;2023-07-31T01:45:46;6.28;;;2.10;;
71462;SDS011;59266;52.608;13.260;2023-07-31T01:48:12;7.22;;;2.08;;
71462;SDS011;59266;52.608;13.260;2023-07-31T01:50:39;8.75;;;2.10;;
71462;SDS011;59266;52.608;13.260;2023-07-31T01:53:06;8.55;;;2.30;;
71462;SDS011;59266;52.608;13.260;2023-07-31T01:55:32;7.85;;;2.40;;
71462;SDS011;59266;52.608;13.260;2023-07-31T01:57:59;9.00;;;2.30;;
71462;SDS011;59266;52.608;13.260;2023-07-31T02:00:25;7.95;;;2.00;;
71462;SDS011;59266;52.608;13.260;2023-07-31T02:02:52;8.10;;;2.22;;
71462;SDS011;59266;52.608;13.260;2023-07-31T02:05:19;6.75;;;2.30;;
71462;SDS011;59266;52.608;13.260;2023-07-31T02:07:45;7.85;;;2.20;;
71462;SDS011;59266;52.608;13.260;2023-07-31T02:10:12;6.20;;;2.20;;
71462;SDS011;59266;52.608;13.260;2023-07-31T02:12:38;8.00;;;2.83;;
71462;SDS011;59266;52.608;13.260;2023-07-31T02:15:05;8.20;;;2.35;;
71462;SDS011;59266;52.608;13.260;2023-07-31T02:17:32;10.30;;;2.75;;
71462;SDS011;59266;52.608;13.260;2023-07-31T02:19:59;11.02;;;2.60;;
71462;SDS011;59266;52.608;13.260;2023-07-31T02:22:26;7.57;;;2.40;;
71462;SDS011;59266;52.608;13.260;2023-07-31T02:24:52;8.95;;;2.28;;
71462;SDS011;59266;52.608;13.260;2023-07-31T02:27:19;7.03;;;2.70;;
71462;SDS011;59266;52.608;13.260;2023-07-31T02:29:45;9.00;;;3.00;;
71462;SDS011;59266;52.608;13.260;2023-07-31T02:32:12;12.88;;;2.60;;
71462;SDS011;59266;52.608;13.260;2023-07-31T02:34:39;7.57;;;2.38;;
71462;SDS011;59266;52.608;13.260;2023-07-31T02:37:06;7.93;;;2.80;;
71462;SDS011;59266;52.608;13.260;2023-07-31T02:39:33;9.85;;;3.15;;
71462;SDS011;59266;52.608;13.260;2023-07-31T02:41:59;8.40;;;2.55;;
71462;SDS011;59266;52.608;13.260;2023-07-31T02:44:26;7.10;;;2.45;;
71462;SDS011;59266;52.608;13.260;2023-07-31T02:46:53;15.32;;;2.92;;
71462;SDS011;59266;52.608;13.260;2023-07-31T02:49:20;8.25;;;2.40;;
71462;SDS011;59266;52.608;13.260;2023-07-31T02:51:46;7.57;;;2.70;;
71462;SDS011;59266;52.608;13.260;2023-07-31T02:54:13;8.05;;;2.60;;
71462;SDS011;59266;52.608;13.260;2023-07-31T02:56:39;6.75;;;2.85;;
71462;SDS011;59266;52.608;13.260;2023-07-31T02:59:06;7.15;;;2.70;;
71462;SDS011;59266;52.608;13.260;2023-07-31T03:01:33;8.57;;;2.80;;
71462;SDS011;59266;52.608;13.260;2023-07-31T03:04:00;11.13;;;3.42;;
71462;SDS011;59266;52.608;13.260;2023-07-31T03:06:26;9.52;;;2.85;;
71462;SDS011;59266;52.608;13.260;2023-07-31T03:08:54;8.32;;;2.85;;
71462;SDS011;59266;52.608;13.260;2023-07-31T03:11:20;11.13;;;3.20;;
71462;SDS011;59266;52.608;13.260;2023-07-31T03:13:47;8.02;;;3.00;;
71462;SDS011;59266;52.608;13.260;2023-07-31T03:16:13;8.48;;;2.92;;
71462;SDS011;59266;52.608;13.260;2023-07-31T03:18:40;9.70;;;2.75;;
71462;SDS011;59266;52.608;13.260;2023-07-31T03:21:07;6.22;;;2.45;;
71462;SDS011;59266;52.608;13.260;2023-07-31T03:23:34;11.48;;;2.80;;
71462;SDS011;59266;52.608;13.260;2023-07-31T03:26:01;10.95;;;3.00;;
71462;SDS011;59266;52.608;13.260;2023-07-31T03:28:29;10.90;;;3.00;;
71462;SDS011;59266;52.608;13.260;2023-07-31T03:30:56;7.65;;;3.17;;
71462;SDS011;59266;52.608;13.260;2023-07-31T03:33:23;9.90;;;3.25;;
71462;SDS011;59266;52.608;13.260;2023-07-31T03:35:49;10.88;;;3.50;;
71462;SDS011;59266;52.608;13.260;2023-07-31T03:38:16;8.77;;;3.10;;
71462;SDS011;59266;52.608;13.260;2023-07-31T03:40:43;10.10;;;3.05;;
71462;SDS011;59266;52.608;13.260;2023-07-31T03:43:10;20.20;;;3.50;;
71462;SDS011;59266;52.608;13.260;2023-07-31T03:45:37;10.18;;;3.20;;
71462;SDS011;59266;52.608;13.260;2023-07-31T03:48:04;10.68;;;3.47;;
71462;SDS011;59266;52.608;13.260;2023-07-31T03:50:31;10.05;;;3.70;;
71462;SDS011;59266;52.608;13.260;2023-07-31T03:52:57;10.70;;;3.20;;
71462;SDS011;59266;52.608;13.260;2023-07-31T03:55:24;7.80;;;3.30;;
71462;SDS011;59266;52.608;13.260;2023-07-31T03:57:51;12.48;;;3.90;;
71462;SDS011;59266;52.608;13.260;2023-07-31T04:00:17;8.23;;;3.55;;
71462;SDS011;59266;52.608;13.260;2023-07-31T04:02:44;8.00;;;3.70;;
71462;SDS011;59266;52.608;13.260;2023-07-31T04:05:11;11.95;;;3.75;;
71462;SDS011;59266;52.608;13.260;2023-07-31T04:07:38;10.98;;;3.97;;
71462;SDS011;59266;52.608;13.260;2023-07-31T04:10:04;9.68;;;3.78;;
71462;SDS011;59266;52.608;13.260;2023-07-31T04:12:31;10.85;;;3.95;;
71462;SDS011;59266;52.608;13.260;2023-07-31T04:14:58;10.32;;;3.80;;
71462;SDS011;59266;52.608;13.260;2023-07-31T04:17:24;9.65;;;3.38;;
71462;SDS011;59266;52.608;13.260;2023-07-31T04:19:51;9.43;;;3.88;;
71462;SDS011;59266;52.608;13.260;2023-07-31T04:22:17;9.18;;;3.90;;
71462;SDS011;59266;52.608;13.260;2023-07-31T04:24:44;10.23;;;4.32;;
71462;SDS011;59266;52.608;13.260;2023-07-31T04:27:11;11.20;;;3.70;;
71462;SDS011;59266;52.608;13.260;2023-07-31T04:29:37;11.70;;;3.80;;
71462;SDS011;59266;52.608;13.260;2023-07-31T04:32:08;12.82;;;3.92;;
71462;SDS011;59266;52.608;13.260;2023-07-31T04:34:35;11.95;;;4.07;;
71462;SDS011;59266;52.608;13.260;2023-07-31T04:37:02;11.07;;;4.28;;
71462;SDS011;59266;52.608;13.260;2023-07-31T04:39:29;12.48;;;3.85;;
71462;SDS011;59266;52.608;13.260;2023-07-31T04:41:55;8.40;;;4.25;;
71462;SDS011;59266;52.608;13.260;2023-07-31T04:44:24;10.07;;;4.30;;
71462;SDS011;59266;52.608;13.260;2023-07-31T04:46:51;10.68;;;4.15;;
71462;SDS011;59266;52.608;13.260;2023-07-31T04:49:18;10.30;;;3.80;;
71462;SDS011;59266;52.608;13.260;2023-07-31T04:51:45;10.05;;;3.90;;
71462;SDS011;59266;52.608;13.260;2023-07-31T04:54:12;11.45;;;3.80;;
71462;SDS011;59266;52.608;13.260;2023-07-31T04:56:41;8.52;;;4.30;;
71462;SDS011;59266;52.608;13.260;2023-07-31T04:59:07;12.55;;;4.03;;
71462;SDS011;59266;52.608;13.260;2023-07-31T05:01:34;10.57;;;3.90;;
71462;SDS011;59266;52.608;13.260;2023-07-31T05:04:01;12.40;;;3.97;;
71462;SDS011;59266;52.608;13.260;2023-07-31T05:06:28;10.50;;;3.60;;
71462;SDS011;59266;52.608;13.260;2023-07-31T05:08:54;9.05;;;4.03;;
71462;SDS011;59266;52.608;13.260;2023-07-31T05:11:21;12.65;;;3.50;;
71462;SDS011;59266;52.608;13.260;2023-07-31T05:13:48;10.95;;;4.13;;
71462;SDS011;59266;52.608;13.260;2023-07-31T05:16:16;14.23;;;3.70;;
71462;SDS011;59266;52.608;13.260;2023-07-31T05:18:46;8.07;;;3.38;;
71462;SDS011;59266;52.608;13.260;2023-07-31T05:21:13;8.88;;;3.63;;
71462;SDS011;59266;52.608;13.260;2023-07-31T05:23:40;10.65;;;3.40;;
71462;SDS011;59266;52.608;13.260;2023-07-31T05:26:07;9.98;;;3.15;;
71462;SDS011;59266;52.608;13.260;2023-07-31T05:28:37;9.88;;;3.50;;
71462;SDS011;59266;52.608;13.260;2023-07-31T05:31:04;8.90;;;3.30;;
71462;SDS011;59266;52.608;13.260;2023-07-31T05:33:33;10.00;;;3.50;;
71462;SDS011;59266;52.608;13.260;2023-07-31T05:36:00;7.88;;;3.10;;
71462;SDS011;59266;52.608;13.260;2023-07-31T05:38:26;11.75;;;3.75;;
71462;SDS011;59266;52.608;13.260;2023-07-31T05:40:53;8.68;;;3.35;;
71462;SDS011;59266;52.608;13.260;2023-07-31T05:43:20;13.38;;;2.97;;
71462;SDS011;59266;52.608;13.260;2023-07-31T05:45:47;11.77;;;3.50;;
71462;SDS011;59266;52.608;13.260;2023-07-31T05:48:14;10.48;;;3.78;;
71462;SDS011;59266;52.608;13.260;2023-07-31T05:50:43;12.88;;;3.35;;
71462;SDS011;59266;52.608;13.260;2023-07-31T05:53:09;8.38;;;4.05;;
71462;SDS011;59266;52.608;13.260;2023-07-31T05:55:37;11.00;;;3.67;;
71462;SDS011;59266;52.608;13.260;2023-07-31T05:58:03;9.23;;;3.13;;
71462;SDS011;59266;52.608;13.260;2023-07-31T06:00:30;8.40;;;3.33;;
71462;SDS011;59266;52.608;13.260;2023-07-31T06:02:57;9.55;;;3.30;;
71462;SDS011;59266;52.608;13.260;2023-07-31T06:05:24;9.55;;;3.42;;
71462;SDS011;59266;52.608;13.260;2023-07-31T06:07:50;9.45;;;3.08;;
71462;SDS011;59266;52.608;13.260;2023-07-31T06:10:17;10.50;;;3.17;;
71462;SDS011;59266;52.608;13.260;2023-07-31T06:12:45;8.10;;;3.03;;
71462;SDS011;59266;52.608;13.260;2023-07-31T06:15:11;9.23;;;2.97;;
71462;SDS011;59266;52.608;13.260;2023-07-31T06:17:38;7.97;;;2.60;;
71462;SDS011;59266;52.608;13.260;2023-07-31T06:20:08;7.15;;;2.90;;
71462;SDS011;59266;52.608;13.260;2023-07-31T06:22:40;11.00;;;3.10;;
71462;SDS011;59266;52.608;13.260;2023-07-31T06:25:08;8.43;;;2.80;;
71462;SDS011;59266;52.608;13.260;2023-07-31T06:27:38;8.10;;;2.40;;
71462;SDS011;59266;52.608;13.260;2023-07-31T06:30:05;8.57;;;2.67;;
71462;SDS011;59266;52.608;13.260;2023-07-31T06:32:32;10.77;;;2.65;;
71462;SDS011;59266;52.608;13.260;2023-07-31T06:35:00;7.13;;;2.70;;
71462;SDS011;59266;52.608;13.260;2023-07-31T06:37:27;6.22;;;2.58;;
71462;SDS011;59266;52.608;13.260;2023-07-31T06:40:02;9.15;;;2.78;;
71462;SDS011;59266;52.608;13.260;2023-07-31T06:42:31;12.02;;;2.70;;
71462;SDS011;59266;52.608;13.260;2023-07-31T06:44:59;7.70;;;2.63;;
71462;SDS011;59266;52.608;13.260;2023-07-31T06:47:26;7.50;;;2.30;;
71462;SDS011;59266;52.608;13.260;2023-07-31T06:49:53;8.43;;;2.70;;
71462;SDS011;59266;52.608;13.260;2023-07-31T06:52:19;7.65;;;2.58;;
71462;SDS011;59266;52.608;13.260;2023-07-31T06:54:59;10.25;;;2.60;;
71462;SDS011;59266;52.608;13.260;2023-07-31T06:57:29;8.30;;;2.58;;
71462;SDS011;59266;52.608;13.260;2023-07-31T06:59:55;6.18;;;2.50;;
71462;SDS011;59266;52.608;13.260;2023-07-31T07:02:22;6.82;;;2.55;;
71462;SDS011;59266;52.608;13.260;2023-07-31T07:04:49;10.05;;;2.78;;
71462;SDS011;59266;52.608;13.260;2023-07-31T07:07:16;6.25;;;2.50;;
71462;SDS011;59266;52.608;13.260;2023-07-31T07:09:43;9.77;;;2.63;;
71462;SDS011;59266;52.608;13.260;2023-07-31T07:12:09;9.23;;;2.53;;
71462;SDS011;59266;52.608;13.260;2023-07-31T07:14:36;8.27;;;2.42;;
71462;SDS011;59266;52.608;13.260;2023-07-31T07:17:02;8.68;;;2.35;;
71462;SDS011;59266;52.608;13.260;2023-07-31T07:19:30;6.53;;;2.00;;
71462;SDS011;59266;52.608;13.260;2023-07-31T07:21:56;8.13;;;2.30;;
71462;SDS011;59266;52.608;13.260;2023-07-31T07:24:23;6.28;;;2.00;;
71462;SDS011;59266;52.608;13.260;2023-07-31T07:26:50;7.68;;;1.92;;
71462;SDS011;59266;52.608;13.260;2023-07-31T07:29:16;9.57;;;2.50;;
71462;SDS011;59266;52.608;13.260;2023-07-31T07:31:45;5.25;;;1.92;;
71462;SDS011;59266;52.608;13.260;2023-07-31T07:34:12;8.80;;;2.05;;
71462;SDS011;59266;52.608;13.260;2023-07-31T07:36:38;7.97;;;2.10;;
71462;SDS011;59266;52.608;13.260;2023-07-31T07:39:05;7.25;;;2.13;;
71462;SDS011;59266;52.608;13.260;2023-07-31T07:41:32;6.18;;;2.50;;
71462;SDS011;59266;52.608;13.260;2023-07-31T07:43:59;9.48;;;2.50;;
71462;SDS011;59266;52.608;13.260;2023-07-31T07:46:28;8.80;;;2.28;;
71462;SDS011;59266;52.608;13.260;2023-07-31T07:48:55;6.55;;;2.13;;
71462;SDS011;59266;52.608;13.260;2023-07-31T07:51:21;5.43;;;2.00;;
71462;SDS011;59266;52.608;13.260;2023-07-31T07:53:48;5.80;;;2.03;;
71462;SDS011;59266;52.608;13.260;2023-07-31T07:56:15;6.53;;;2.15;;
71462;SDS011;59266;52.608;13.260;2023-07-31T07:58:41;6.60;;;2.15;;
71462;SDS011;59266;52.608;13.260;2023-07-31T08:01:08;5.22;;;1.92;;
71462;SDS011;59266;52.608;13.260;2023-07-31T08:03:34;6.80;;;2.00;;
71462;SDS011;59266;52.608;13.260;2023-07-31T08:06:01;9.82;;;3.03;;
71462;SDS011;59266;52.608;13.260;2023-07-31T08:08:29;5.53;;;2.10;;
71462;SDS011;59266;52.608;13.260;2023-07-31T08:10:56;6.97;;;1.88;;
71462;SDS011;59266;52.608;13.260;2023-07-31T08:13:22;7.22;;;2.25;;
71462;SDS011;59266;52.608;13.260;2023-07-31T08:15:49;6.07;;;1.90;;
71462;SDS011;59266;52.608;13.260;2023-07-31T08:18:15;5.93;;;1.95;;
71462;SDS011;59266;52.608;13.260;2023-07-31T08:20:43;5.75;;;1.83;;
71462;SDS011;59266;52.608;13.260;2023-07-31T08:23:10;7.88;;;2.00;;
71462;SDS011;59266;52.608;13.260;2023-07-31T08:25:37;5.93;;;1.88;;
71462;SDS011;59266;52.608;13.260;2023-07-31T08:28:04;8.20;;;2.20;;
71462;SDS011;59266;52.608;13.260;2023-07-31T08:30:32;7.57;;;1.98;;
71462;SDS011;59266;52.608;13.260;2023-07-31T08:32:59;3.40;;;1.40;;
71462;SDS011;59266;52.608;13.260;2023-07-31T08:35:26;6.15;;;2.00;;
71462;SDS011;59266;52.608;13.260;2023-07-31T08:37:56;6.88;;;2.03;;
71462;SDS011;59266;52.608;13.260;2023-07-31T08:40:23;5.50;;;1.90;;
71462;SDS011;59266;52.608;13.260;2023-07-31T08:42:52;7.82;;;2.03;;
71462;SDS011;59266;52.608;13.260;2023-07-31T08:45:20;6.03;;;2.05;;
71462;SDS011;59266;52.608;13.260;2023-07-31T08:47:47;5.95;;;2.03;;
71462;SDS011;59266;52.608;13.260;2023-07-31T08:50:18;7.20;;;2.00;;
71462;SDS011;59266;52.608;13.260;2023-07-31T08:52:46;5.60;;;1.88;;
71462;SDS011;59266;52.608;13.260;2023-07-31T08:55:13;4.57;;;1.60;;
71462;SDS011;59266;52.608;13.260;2023-07-31T08:57:40;5.88;;;1.67;;
71462;SDS011;59266;52.608;13.260;2023-07-31T09:00:09;5.10;;;1.90;;
71462;SDS011;59266;52.608;13.260;2023-07-31T09:02:38;4.45;;;1.75;;
71462;SDS011;59266;52.608;13.260;2023-07-31T09:05:11;5.90;;;1.67;;
71462;SDS011;59266;52.608;13.260;2023-07-31T09:07:38;4.43;;;1.63;;
71462;SDS011;59266;52.608;13.260;2023-07-31T09:10:07;4.75;;;1.70;;
71462;SDS011;59266;52.608;13.260;2023-07-31T09:12:33;4.07;;;1.42;;
71462;SDS011;59266;52.608;13.260;2023-07-31T09:15:00;4.60;;;1.50;;
71462;SDS011;59266;52.608;13.260;2023-07-31T09:17:36;4.80;;;1.70;;
71462;SDS011;59266;52.608;13.260;2023-07-31T09:20:13;3.63;;;1.52;;
71462;SDS011;59266;52.608;13.260;2023-07-31T09:22:43;4.82;;;1.38;;
71462;SDS011;59266;52.608;13.260;2023-07-31T09:25:24;3.90;;;1.45;;
71462;SDS011;59266;52.608;13.260;2023-07-31T09:27:59;5.50;;;1.70;;
71462;SDS011;59266;52.608;13.260;2023-07-31T09:30:30;4.47;;;1.45;;
71462;SDS011;59266;52.608;13.260;2023-07-31T09:33:01;4.35;;;1.48;;
71462;SDS011;59266;52.608;13.260;2023-07-31T09:35:33;6.78;;;1.60;;
71462;SDS011;59266;52.608;13.260;2023-07-31T09:38:05;5.00;;;1.38;;
71462;SDS011;59266;52.608;13.260;2023-07-31T09:40:37;4.30;;;1.40;;
71462;SDS011;59266;52.608;13.260;2023-07-31T09:43:06;4.93;;;1.38;;
71462;SDS011;59266;52.608;13.260;2023-07-31T09:45:34;3.28;;;1.15;;
71462;SDS011;59266;52.608;13.260;2023-07-31T09:48:08;2.95;;;1.10;;
71462;SDS011;59266;52.608;13.260;2023-07-31T09:50:36;4.57;;;1.45;;
71462;SDS011;59266;52.608;13.260;2023-07-31T09:53:05;2.85;;;1.17;;
71462;SDS011;59266;52.608;13.260;2023-07-31T09:55:32;4.03;;;1.25;;
71462;SDS011;59266;52.608;13.260;2023-07-31T09:58:09;6.57;;;1.30;;
71462;SDS011;59266;52.608;13.260;2023-07-31T10:01:05;3.15;;;1.10;;
71462;SDS011;59266;52.608;13.260;2023-07-31T10:03:35;3.13;;;1.20;;
71462;SDS011;59266;52.608;13.260;2023-07-31T10:06:04;4.15;;;1.60;;
71462;SDS011;59266;52.608;13.260;2023-07-31T10:08:33;3.35;;;1.20;;
71462;SDS011;59266;52.608;13.260;2023-07-31T10:11:02;6.85;;;1.48;;
71462;SDS011;59266;52.608;13.260;2023-07-31T10:13:30;3.83;;;1.40;;
71462;SDS011;59266;52.608;13.260;2023-07-31T10:15:58;8.38;;;1.40;;
71462;SDS011;59266;52.608;13.260;2023-07-31T10:18:29;4.90;;;1.40;;
71462;SDS011;59266;52.608;13.260;2023-07-31T10:20:56;4.15;;;1.55;;
71462;SDS011;59266;52.608;13.260;2023-07-31T10:23:24;4.90;;;1.80;;
71462;SDS011;59266;52.608;13.260;2023-07-31T10:25:52;4.95;;;1.80;;
71462;SDS011;59266;52.608;13.260;2023-07-31T10:28:23;6.78;;;1.77;;
71462;SDS011;59266;52.608;13.260;2023-07-31T10:30:51;6.00;;;1.98;;
71462;SDS011;59266;52.608;13.260;2023-07-31T10:33:18;6.80;;;2.00;;
71462;SDS011;59266;52.608;13.260;2023-07-31T10:35:47;8.27;;;2.53;;
71462;SDS011;59266;52.608;13.260;2023-07-31T10:38:15;9.73;;;2.00;;
71462;SDS011;59266;52.608;13.260;2023-07-31T10:40:41;7.15;;;2.13;;
71462;SDS011;59266;52.608;13.260;2023-07-31T10:43:08;8.40;;;2.30;;
71462;SDS011;59266;52.608;13.260;2023-07-31T10:45:38;7.03;;;2.60;;
71462;SDS011;59266;52.608;13.260;2023-07-31T10:48:06;6.22;;;2.30;;
71462;SDS011;59266;52.608;13.260;2023-07-31T10:53:26;6.82;;;2.58;;
71462;SDS011;59266;52.608;13.260;2023-07-31T10:55:59;7.35;;;2.55;;
71462;SDS011;59266;52.608;13.260;2023-07-31T10:58:27;6.50;;;2.40;;
71462;SDS011;59266;52.608;13.260;2023-07-31T11:00:58;7.68;;;2.42;;
71462;SDS011;59266;52.608;13.260;2023-07-31T11:03:43;8.18;;;2.42;;
71462;SDS011;59266;52.608;13.260;2023-07-31T11:06:17;6.32;;;2.35;;
71462;SDS011;59266;52.608;13.260;2023-07-31T11:11:13;7.53;;;2.38;;
71462;SDS011;59266;52.608;13.260;2023-07-31T11:16:09;9.52;;;2.70;;
71462;SDS011;59266;52.608;13.260;2023-07-31T11:18:38;7.25;;;2.35;;
71462;SDS011;59266;52.608;13.260;2023-07-31T11:21:12;9.13;;;2.60;;
71462;SDS011;59266;52.608;13.260;2023-07-31T11:23:46;7.47;;;2.88;;
71462;SDS011;59266;52.608;13.260;2023-07-31T11:26:14;7.03;;;2.70;;
71462;SDS011;59266;52.608;13.260;2023-07-31T11:28:42;6.63;;;2.72;;
71462;SDS011;59266;52.608;13.260;2023-07-31T11:31:09;7.85;;;3.03;;
71462;SDS011;59266;52.608;13.260;2023-07-31T11:33:37;8.65;;;2.85;;
71462;SDS011;59266;52.608;13.260;2023-07-31T11:36:04;11.10;;;3.40;;
71462;SDS011;59266;52.608;13.260;2023-07-31T11:38:31;8.60;;;2.70;;
71462;SDS011;59266;52.608;13.260;2023-07-31T11:41:00;7.40;;;3.00;;
71462;SDS011;59266;52.608;13.260;2023-07-31T11:43:29;8.98;;;2.85;;
71462;SDS011;59266;52.608;13.260;2023-07-31T11:45:56;7.45;;;2.88;;
71462;SDS011;59266;52.608;13.260;2023-07-31T11:51:02;6.80;;;2.58;;
71462;SDS011;59266;52.608;13.260;2023-07-31T11:53:38;8.15;;;2.53;;
71462;SDS011;59266;52.608;13.260;2023-07-31T11:56:10;11.18;;;3.20;;
71462;SDS011;59266;52.608;13.260;2023-07-31T11:58:39;10.45;;;2.63;;
71462;SDS011;59266;52.608;13.260;2023-07-31T12:01:07;6.35;;;2.42;;
71462;SDS011;59266;52.608;13.260;2023-07-31T12:03:34;8.50;;;2.90;;
71462;SDS011;59266;52.608;13.260;2023-07-31T12:06:01;7.45;;;2.65;;
71462;SDS011;59266;52.608;13.260;2023-07-31T12:08:28;7.07;;;2.65;;
71462;SDS011;59266;52.608;13.260;2023-07-31T12:11:01;7.80;;;2.25;;
71462;SDS011;59266;52.608;13.260;2023-07-31T12:13:30;9.70;;;2.85;;
71462;SDS011;59266;52.608;13.260;2023-07-31T12:16:00;10.25;;;3.35;;
71462;SDS011;59266;52.608;13.260;2023-07-31T12:19:24;8.65;;;2.70;;
71462;SDS011;59266;52.608;13.260;2023-07-31T12:21:47;7.82;;;2.38;;
71462;SDS011;59266;52.608;13.260;2023-07-31T12:24:14;7.28;;;2.70;;
71462;SDS011;59266;52.608;13.260;2023-07-31T12:26:42;7.20;;;2.97;;
71462;SDS011;59266;52.608;13.260;2023-07-31T12:29:12;8.57;;;2.70;;
71462;SDS011;59266;52.608;13.260;2023-07-31T12:31:40;7.32;;;2.88;;
71462;SDS011;59266;52.608;13.260;2023-07-31T12:34:23;10.85;;;2.90;;
71462;SDS011;59266;52.608;13.260;2023-07-31T12:39:54;6.40;;;2.78;;
71462;SDS011;59266;52.608;13.260;2023-07-31T12:42:20;8.70;;;2.85;;
71462;SDS011;59266;52.608;13.260;2023-07-31T12:44:47;7.07;;;2.70;;
71462;SDS011;59266;52.608;13.260;2023-07-31T12:47:57;7.00;;;2.67;;
71462;SDS011;59266;52.608;13.260;2023-07-31T12:50:25;8.27;;;2.88;;
71462;SDS011;59266;52.608;13.260;2023-07-31T12:52:53;8.02;;;3.00;;
71462;SDS011;59266;52.608;13.260;2023-07-31T12:55:20;9.52;;;2.67;;
71462;SDS011;59266;52.608;13.260;2023-07-31T12:57:47;7.00;;;3.10;;
71462;SDS011;59266;52.608;13.260;2023-07-31T13:00:14;8.93;;;3.08;;
71462;SDS011;59266;52.608;13.260;2023-07-31T13:02:40;6.07;;;2.55;;
71462;SDS011;59266;52.608;13.260;2023-07-31T13:05:08;7.70;;;2.63;;
71462;SDS011;59266;52.608;13.260;2023-07-31T13:07:34;9.77;;;2.85;;
71462;SDS011;59266;52.608;13.260;2023-07-31T13:10:01;7.68;;;3.17;;
71462;SDS011;59266;52.608;13.260;2023-07-31T13:12:28;8.88;;;3.05;;
71462;SDS011;59266;52.608;13.260;2023-07-31T13:14:54;7.13;;;2.65;;
71462;SDS011;59266;52.608;13.260;2023-07-31T13:17:21;7.10;;;2.53;;
71462;SDS011;59266;52.608;13.260;2023-07-31T13:19:48;5.60;;;2.33;;
71462;SDS011;59266;52.608;13.260;2023-07-31T13:22:17;6.25;;;2.58;;
71462;SDS011;59266;52.608;13.260;2023-07-31T13:24:43;6.72;;;2.42;;
71462;SDS011;59266;52.608;13.260;2023-07-31T13:27:10;7.75;;;2.28;;
71462;SDS011;59266;52.608;13.260;2023-07-31T13:29:37;5.97;;;2.08;;
71462;SDS011;59266;52.608;13.260;2023-07-31T13:32:07;6.55;;;2.38;;
71462;SDS011;59266;52.608;13.260;2023-07-31T13:34:35;8.35;;;2.17;;
71462;SDS011;59266;52.608;13.260;2023-07-31T13:37:02;7.03;;;2.47;;
71462;SDS011;59266;52.608;13.260;2023-07-31T13:39:29;8.27;;;2.50;;
71462;SDS011;59266;52.608;13.260;2023-07-31T13:41:55;5.93;;;2.20;;
71462;SDS011;59266;52.608;13.260;2023-07-31T13:44:22;8.15;;;2.33;;
71462;SDS011;59266;52.608;13.260;2023-07-31T13:46:48;8.05;;;2.20;;
71462;SDS011;59266;52.608;13.260;2023-07-31T13:49:15;6.97;;;2.00;;
71462;SDS011;59266;52.608;13.260;2023-07-31T13:51:42;8.63;;;2.30;;
71462;SDS011;59266;52.608;13.260;2023-07-31T13:54:09;6.13;;;2.30;;
71462;SDS011;59266;52.608;13.260;2023-07-31T13:56:38;6.13;;;2.10;;
71462;SDS011;59266;52.608;13.260;2023-07-31T13:59:05;7.03;;;2.22;;
71462;SDS011;59266;52.608;13.260;2023-07-31T14:01:31;5.90;;;2.38;;
71462;SDS011;59266;52.608;13.260;2023-07-31T14:03:58;5.45;;;2.10;;
71462;SDS011;59266;52.608;13.260;2023-07-31T14:06:28;6.18;;;2.45;;
71462;SDS011;59266;52.608;13.260;2023-07-31T14:08:55;7.20;;;2.20;;
71462;SDS011;59266;52.608;13.260;2023-07-31T14:11:22;6.45;;;2.40;;
71462;SDS011;59266;52.608;13.260;2023-07-31T14:13:51;9.63;;;2.50;;
71462;SDS011;59266;52.608;13.260;2023-07-31T14:16:18;8.98;;;2.60;;
71462;SDS011;59266;52.608;13.260;2023-07-31T14:18:45;6.68;;;2.25;;
71462;SDS011;59266;52.608;13.260;2023-07-31T14:21:13;7.15;;;2.55;;
71462;SDS011;59266;52.608;13.260;2023-07-31T14:23:39;7.28;;;2.60;;
71462;SDS011;59266;52.608;13.260;2023-07-31T14:26:09;6.60;;;2.30;;
71462;SDS011;59266;52.608;13.260;2023-07-31T14:28:43;8.35;;;2.78;;
71462;SDS011;59266;52.608;13.260;2023-07-31T14:31:09;7.53;;;2.83;;
71462;SDS011;59266;52.608;13.260;2023-07-31T14:33:36;5.75;;;2.33;;
71462;SDS011;59266;52.608;13.260;2023-07-31T14:36:03;7.47;;;2.50;;
71462;SDS011;59266;52.608;13.260;2023-07-31T14:38:30;7.75;;;2.65;;
71462;SDS011;59266;52.608;13.260;2023-07-31T14:40:56;8.68;;;2.75;;
71462;SDS011;59266;52.608;13.260;2023-07-31T14:43:23;7.07;;;2.80;;
71462;SDS011;59266;52.608;13.260;2023-07-31T14:45:49;6.03;;;2.30;;
71462;SDS011;59266;52.608;13.260;2023-07-31T14:48:16;7.53;;;2.67;;
71462;SDS011;59266;52.608;13.260;2023-07-31T14:50:43;7.55;;;2.55;;
71462;SDS011;59266;52.608;13.260;2023-07-31T14:53:09;6.63;;;2.50;;
71462;SDS011;59266;52.608;13.260;2023-07-31T14:55:36;8.38;;;2.63;;
71462;SDS011;59266;52.608;13.260;2023-07-31T14:58:03;6.25;;;2.30;;
71462;SDS011;59266;52.608;13.260;2023-07-31T15:00:32;6.70;;;2.28;;